TimeEDT,TemperatureF,Dew PointF,Humidity,Sea Level PressureIn,VisibilityMPH,Wind Direction,Wind SpeedMPH,Gust SpeedMPH,PrecipitationIn,Events,Conditions,WindDirDegrees,DateUTC
12:51 AM,75.9,64.9,69,29.90,10.0,South,9.2,-,N/A,,Partly Cloudy,170,2013-06-02 04:51:00
1:51 AM,73.9,64.0,71,29.89,10.0,South,8.1,-,N/A,,Partly Cloudy,170,2013-06-02 05:51:00
2:51 AM,75.0,64.0,69,29.87,10.0,South,9.2,-,N/A,,Clear,190,2013-06-02 06:51:00
3:51 AM,73.0,63.0,71,29.87,10.0,South,11.5,-,N/A,,Clear,190,2013-06-02 07:51:00
4:51 AM,72.0,63.0,73,29.87,10.0,South,9.2,-,N/A,,Partly Cloudy,180,2013-06-02 08:51:00
5:51 AM,70.0,62.1,76,29.87,10.0,South,8.1,-,N/A,,Partly Cloudy,170,2013-06-02 09:51:00
6:51 AM,73.9,64.0,71,29.86,10.0,South,9.2,-,N/A,,Scattered Clouds,180,2013-06-02 10:51:00
7:51 AM,75.9,64.0,67,29.87,10.0,South,10.4,-,N/A,,Scattered Clouds,190,2013-06-02 11:51:00
8:51 AM,80.1,64.0,58,29.85,10.0,SSW,13.8,-,N/A,,Scattered Clouds,200,2013-06-02 12:51:00
9:51 AM,82.0,64.0,54,29.83,10.0,SSW,15.0,20.7,N/A,,Scattered Clouds,200,2013-06-02 13:51:00
10:51 AM,84.9,64.9,51,29.83,10.0,SSW,15.0,18.4,N/A,,Scattered Clouds,200,2013-06-02 14:51:00
11:51 AM,86.0,64.0,48,29.83,10.0,South,13.8,23.0,N/A,,Scattered Clouds,180,2013-06-02 15:51:00
12:51 PM,87.1,64.0,46,29.82,10.0,SSW,8.1,19.6,N/A,,Scattered Clouds,210,2013-06-02 16:51:00
1:51 PM,87.1,64.0,46,29.81,10.0,South,13.8,19.6,N/A,,Scattered Clouds,170,2013-06-02 17:51:00
2:51 PM,86.0,64.0,48,29.79,10.0,South,16.1,-,N/A,,Scattered Clouds,170,2013-06-02 18:51:00
3:51 PM,84.0,63.0,49,29.78,10.0,SSE,12.7,-,N/A,,Mostly Cloudy,160,2013-06-02 19:51:00
4:51 PM,84.0,63.0,49,29.77,10.0,South,12.7,-,N/A,,Mostly Cloudy,170,2013-06-02 20:51:00
5:51 PM,82.0,63.0,52,29.77,10.0,South,11.5,-,N/A,,Mostly Cloudy,180,2013-06-02 21:51:00
6:51 PM,86.0,60.1,41,29.78,10.0,SW,18.4,24.2,N/A,,Overcast,230,2013-06-02 22:51:00
7:51 PM,84.0,64.0,51,29.79,10.0,SSW,10.4,18.4,N/A,,Overcast,200,2013-06-02 23:51:00
8:51 PM,79.0,64.9,62,29.81,10.0,SSE,9.2,-,N/A,,Overcast,160,2013-06-03 00:51:00
9:51 PM,78.1,63.0,60,29.81,10.0,SSW,9.2,-,N/A,,Mostly Cloudy,200,2013-06-03 01:51:00
10:47 PM,78.8,64.4,61,29.82,8.0,South,11.5,-,0.00,Rain-Thunderstorm,Light Thunderstorms and Rain,190,2013-06-03 02:47:00
10:51 PM,78.1,66.0,66,29.82,8.0,South,12.7,-,0.00,Rain-Thunderstorm,Light Thunderstorms and Rain,190,2013-06-03 02:51:00
11:51 PM,73.0,66.0,79,29.83,5.0,WSW,15.0,26.5,0.04,Rain-Thunderstorm,Heavy Thunderstorms and Rain,240,2013-06-03 03:51:00